Time;durP1;ratioP1;P1;durP2;ratioP2;P2;SDS_P1;SDS_P2;PMS_P1;PMS_P2;Temp;Humidity;BMP_temperature;BMP_pressure;BME280_temperature;BME280_humidity;BME280_pressure;Samples;Min_cycle;Max_cycle;Signal;HPM_P1;HPM_P2
2021/12/21 00:01:54;;;;;;;;;8.25;6.00;;;;;21.21;31.30;101902.19;5057156;28;45412;-53
2021/12/21 00:04:20;;;;;;;;;9.50;7.50;;;;;21.21;31.20;101907.47;5057642;28;45482;-51
2021/12/21 00:06:45;;;;;;;;;6.75;6.75;;;;;21.22;31.35;101908.31;5057249;28;45546;-52
2021/12/21 00:09:10;;;;;;;;;7.00;7.00;;;;;21.24;31.42;101903.84;5056964;28;45990;-53
2021/12/21 00:11:36;;;;;;;;;6.00;5.75;;;;;21.24;31.37;101901.19;5057078;28;45389;-53
2021/12/21 00:17:14;;;;;;;;;7.50;7.25;;;;;21.23;31.42;101884.50;5033455;28;45700;-51
2021/12/21 00:23:00;;;;;;;;;7.25;6.00;;;;;21.23;30.87;101886.31;5056907;28;45352;-51
2021/12/21 00:24:59;;;;;;;;;7.25;7.25;;;;;21.21;31.09;101880.22;5055156;28;45392;-51
2021/12/21 00:27:24;;;;;;;;;9.00;6.50;;;;;21.23;30.87;101881.03;5057156;28;45312;-53
2021/12/21 00:29:50;;;;;;;;;9.75;7.00;;;;;21.20;31.34;101886.41;5056281;28;47086;-53
2021/12/21 00:32:15;;;;;;;;;9.75;8.25;;;;;21.20;30.83;101889.94;5056748;28;45407;-52
2021/12/21 00:34:41;;;;;;;;;7.00;6.75;;;;;21.19;30.71;101877.66;5056817;28;45296;-53
2021/12/21 00:37:06;;;;;;;;;7.75;6.00;;;;;21.19;31.15;101882.06;5056859;28;45285;-52
2021/12/21 00:39:32;;;;;;;;;6.00;6.00;;;;;21.17;30.84;101879.50;5056595;28;45805;-54
2021/12/21 00:42:01;;;;;;;;;8.50;7.00;;;;;21.16;30.85;101883.94;5056581;28;45223;-52
2021/12/21 00:44:26;;;;;;;;;9.00;7.75;;;;;21.15;30.73;101882.22;5056496;28;45327;-53
2021/12/21 00:46:52;;;;;;;;;7.75;7.75;;;;;21.13;31.02;101880.53;5057018;28;45394;-55
2021/12/21 00:49:17;;;;;;;;;8.50;7.00;;;;;21.11;31.05;101877.97;5056488;28;45462;-52
2021/12/21 00:51:45;;;;;;;;;6.75;6.75;;;;;21.11;30.79;101880.63;5056547;28;45416;-55
2021/12/21 00:54:11;;;;;;;;;5.75;5.75;;;;;21.09;31.07;101874.53;5056752;28;45328;-54
2021/12/21 00:56:36;;;;;;;;;8.75;6.00;;;;;21.07;31.14;101878.16;5056719;28;45503;-52
2021/12/21 00:59:02;;;;;;;;;7.75;5.75;;;;;21.05;31.02;101874.72;5056407;28;45423;-54
2021/12/21 01:01:28;;;;;;;;;8.50;7.50;;;;;21.04;31.21;101879.16;5056282;28;45364;-55
2021/12/21 01:03:55;;;;;;;;;6.00;6.00;;;;;21.01;31.00;101871.38;5056979;28;45410;-54
2021/12/21 01:06:37;;;;;;;;;5.00;5.00;;;;;21.01;31.24;101866.94;5056892;28;45445;-53
2021/12/21 01:09:23;;;;;;;;;6.50;6.00;;;;;21.00;31.50;101867.88;5055987;28;47258;-53
2021/12/21 01:11:54;;;;;;;;;6.75;6.00;;;;;20.98;30.91;101867.09;5056339;28;45242;-53
2021/12/21 01:19:43;;;;;;;;;6.25;6.25;;;;;20.95;31.17;101868.97;5056172;28;45359;-50
2021/12/21 01:29:56;;;;;;;;;6.50;6.50;;;;;20.86;31.33;101857.03;5055937;28;45422;-54
2021/12/21 01:32:48;;;;;;;;;6.50;6.50;;;;;20.85;31.56;101853.53;5056362;28;45827;-55
2021/12/21 01:35:23;;;;;;;;;7.50;7.00;;;;;20.84;31.34;101856.25;5038080;28;45324;-53
2021/12/21 01:51:06;;;;;;;;;6.00;4.75;;;;;20.75;31.08;101862.75;5059291;28;45794;-54
2021/12/21 01:53:31;;;;;;;;;8.00;5.50;;;;;20.74;31.00;101857.50;5059484;28;45457;-54
2021/12/21 01:55:57;;;;;;;;;5.25;5.25;;;;;20.71;31.61;101855.88;5059492;28;45319;-51
2021/12/21 01:58:22;;;;;;;;;7.75;6.75;;;;;20.69;31.22;101863.81;5059774;28;45554;-53
2021/12/21 02:00:48;;;;;;;;;5.50;5.50;;;;;20.69;31.29;101857.69;5041343;28;45457;-50
2021/12/21 02:03:14;;;;;;;;;5.25;2.00;;;;;20.68;31.48;101872.63;5059288;28;45315;-54
2021/12/21 02:05:39;;;;;;;;;6.25;6.25;;;;;20.68;31.47;101862.09;5059282;28;45527;-54
2021/12/21 02:08:05;;;;;;;;;5.00;5.00;;;;;20.70;31.50;101859.41;5059279;28;45204;-54
2021/12/21 02:10:31;;;;;;;;;5.75;5.00;;;;;20.72;31.39;101856.72;5059164;28;46334;-54
2021/12/21 02:12:57;;;;;;;;;7.50;4.00;;;;;20.71;31.55;101850.59;5059352;28;45782;-54
2021/12/21 02:15:25;;;;;;;;;6.00;5.25;;;;;20.78;31.66;101859.16;5059479;28;45430;-55
2021/12/21 02:22:53;;;;;;;;;6.00;6.00;;;;;20.90;31.21;101845.44;5058992;28;45791;-53
2021/12/21 02:28:23;;;;;;;;;5.75;5.00;;;;;20.98;31.60;101838.09;5059114;28;45411;-52
2021/12/21 02:30:53;;;;;;;;;6.50;5.00;;;;;21.05;31.36;101837.84;5057747;28;45331;-52
2021/12/21 02:33:20;;;;;;;;;5.25;5.00;;;;;21.08;31.27;101829.81;5058690;28;45387;-52
2021/12/21 02:35:45;;;;;;;;;5.25;5.00;;;;;21.11;30.98;101827.06;5058625;28;45331;-56
2021/12/21 02:38:11;;;;;;;;;5.25;5.25;;;;;21.14;30.98;101824.25;5058994;28;45344;-54
2021/12/21 02:40:38;;;;;;;;;8.50;4.50;;;;;21.17;30.97;101818.88;5058532;28;45720;-53
2021/12/21 02:43:04;;;;;;;;;5.00;5.00;;;;;21.23;30.83;101826.50;5058442;28;45804;-49
2021/12/21 02:45:30;;;;;;;;;5.25;5.00;;;;;21.23;30.88;101821.22;5058649;28;45234;-54
2021/12/21 02:47:56;;;;;;;;;7.00;6.00;;;;;21.28;30.93;101824.53;5059030;28;45545;-53
2021/12/21 02:50:22;;;;;;;;;6.75;5.00;;;;;21.30;30.99;101814.78;5058386;28;45373;-52
2021/12/21 02:52:47;;;;;;;;;6.00;5.25;;;;;21.33;31.04;101813.78;5057982;28;45232;-53
2021/12/21 02:55:13;;;;;;;;;5.50;5.50;;;;;21.37;31.21;101811.88;5058511;28;45629;-53
2021/12/21 02:57:39;;;;;;;;;4.75;4.75;;;;;21.37;30.85;101806.59;5058524;28;45541;-51
2021/12/21 03:00:08;;;;;;;;;4.50;3.50;;;;;21.38;30.83;101797.78;5058477;28;45940;-53
2021/12/21 03:02:33;;;;;;;;;6.25;5.00;;;;;21.40;30.83;101803.84;5058189;28;45885;-53
2021/12/21 03:04:59;;;;;;;;;7.00;6.00;;;;;21.37;31.12;101796.94;5040606;28;45362;-51
2021/12/21 03:08:01;;;;;;;;;6.25;5.50;;;;;21.38;30.69;101798.66;5058768;28;45575;-53
2021/12/21 03:10:24;;;;;;;;;4.50;4.50;;;;;21.38;31.07;101796.00;5058009;28;46435;-51
2021/12/21 03:15:20;;;;;;;;;6.00;6.00;;;;;21.39;30.74;101802.13;5058289;28;45470;-53
2021/12/21 03:17:45;;;;;;;;;6.50;5.00;;;;;21.38;30.95;101800.41;5058405;28;45243;-53
2021/12/21 03:20:11;;;;;;;;;5.50;5.50;;;;;21.40;30.57;101801.19;5057848;28;45628;-51
2021/12/21 03:22:37;;;;;;;;;3.50;3.50;;;;;21.40;30.83;101803.84;5058044;28;45248;-52
2021/12/21 03:25:03;;;;;;;;;5.75;5.75;;;;;21.37;30.91;101794.28;5058135;28;45256;-53
2021/12/21 03:27:28;;;;;;;;;5.50;5.50;;;;;21.38;31.02;101813.59;5058470;28;45537;-54
2021/12/21 03:29:54;;;;;;;;;5.00;5.00;;;;;21.37;30.72;101811.88;5057635;28;45963;-53
2021/12/21 03:32:19;;;;;;;;;8.00;5.50;;;;;21.35;30.43;101797.91;5057865;28;45344;-53
2021/12/21 03:34:45;;;;;;;;;5.50;5.50;;;;;21.36;30.54;101799.63;5057920;28;45334;-52
2021/12/21 03:37:13;;;;;;;;;6.00;4.00;;;;;21.34;30.71;101799.69;5058023;28;45326;-52
2021/12/21 03:39:40;;;;;;;;;5.75;4.00;;;;;21.30;30.85;101796.34;5057538;28;45612;-54
2021/12/21 03:42:06;;;;;;;;;4.50;4.50;;;;;21.34;30.32;101806.72;5057506;28;45765;-54
2021/12/21 03:44:31;;;;;;;;;6.25;5.00;;;;;21.30;30.52;101803.38;5058041;28;45214;-51
2021/12/21 03:46:57;;;;;;;;;6.50;6.00;;;;;21.29;30.26;101799.03;5057893;28;45162;-54
2021/12/21 03:52:01;;;;;;;;;5.75;5.75;;;;;21.26;30.75;101805.28;5057712;28;45309;-53
2021/12/21 03:54:27;;;;;;;;;5.00;5.00;;;;;21.24;30.85;101807.13;5057640;28;45344;-54
2021/12/21 03:56:52;;;;;;;;;5.50;5.00;;;;;21.20;30.58;101800.28;5057620;28;45583;-53
2021/12/21 03:59:20;;;;;;;;;5.00;4.00;;;;;21.21;30.58;101807.28;5057263;28;45969;-52
2021/12/21 04:01:47;;;;;;;;;6.25;4.50;;;;;21.19;30.54;101805.63;5057279;28;45256;-51
2021/12/21 04:04:13;;;;;;;;;4.00;4.00;;;;;21.17;30.48;101810.97;5038556;28;45300;-51
2021/12/21 04:06:39;;;;;;;;;6.25;4.25;;;;;21.14;30.54;101803.19;5057640;28;45206;-53
2021/12/21 04:09:06;;;;;;;;;6.50;5.25;;;;;21.15;30.46;101796.97;5056971;28;45620;-53
2021/12/21 04:11:32;;;;;;;;;5.50;5.50;;;;;21.13;31.04;101804.97;5057599;28;45438;-53
2021/12/21 04:13:58;;;;;;;;;4.50;4.50;;;;;21.12;30.55;101791.84;5057486;28;45349;-51
2021/12/21 04:16:24;;;;;;;;;4.50;4.00;;;;;21.10;30.67;101794.53;5057392;28;45549;-54
2021/12/21 04:18:49;;;;;;;;;6.75;5.75;;;;;21.08;31.08;101787.63;5057209;28;46595;-53
2021/12/21 04:21:15;;;;;;;;;4.50;3.75;;;;;21.08;31.05;101790.28;5057185;28;45418;-53
2021/12/21 04:23:41;;;;;;;;;5.00;5.00;;;;;21.05;30.80;101785.13;5038993;28;45439;-51
2021/12/21 04:26:08;;;;;;;;;4.25;4.25;;;;;21.04;30.74;101786.91;5057331;28;45330;-55
2021/12/21 04:28:34;;;;;;;;;8.25;6.25;;;;;21.04;30.79;101793.94;5057062;28;45444;-52
2021/12/21 04:31:00;;;;;;;;;7.00;6.00;;;;;21.01;31.07;101787.88;5022528;28;45488;-52
2021/12/21 04:33:26;;;;;;;;;6.00;5.75;;;;;20.98;30.58;101785.41;5057119;28;45428;-55
2021/12/21 04:35:51;;;;;;;;;5.00;4.50;;;;;20.96;31.05;101784.59;5056996;28;45591;-54
2021/12/21 04:38:21;;;;;;;;;4.25;4.25;;;;;20.97;31.02;101777.53;5056705;28;45411;-59
2021/12/21 04:41:04;;;;;;;;;6.75;4.75;;;;;20.94;30.91;101783.78;5056692;28;45890;-53
2021/12/21 04:43:30;;;;;;;;;5.25;5.25;;;;;20.93;30.86;101791.78;5057313;28;45307;-53
2021/12/21 04:45:55;;;;;;;;;5.00;5.00;;;;;20.90;30.80;101787.47;5057066;28;45494;-54
2021/12/21 04:48:21;;;;;;;;;5.00;5.00;;;;;20.89;30.61;101785.75;5056569;28;45236;-52
2021/12/21 04:50:47;;;;;;;;;6.50;4.25;;;;;20.88;30.77;101783.19;5056706;28;45479;-53
2021/12/21 04:53:12;;;;;;;;;6.00;5.00;;;;;20.87;30.87;101786.75;5056658;28;45321;-54
2021/12/21 04:55:38;;;;;;;;;6.00;6.00;;;;;20.84;30.68;101779.84;5056872;28;45246;-53
2021/12/21 04:58:04;;;;;;;;;6.75;5.00;;;;;20.83;31.13;101775.47;5056496;28;45653;-52
2021/12/21 05:00:30;;;;;;;;;5.25;5.25;;;;;20.82;31.30;101779.03;5056466;28;45504;-52
2021/12/21 05:02:56;;;;;;;;;4.25;4.25;;;;;20.82;30.92;101773.78;5056822;28;45356;-53
2021/12/21 05:05:22;;;;;;;;;5.50;4.50;;;;;20.83;30.94;101775.47;5056682;28;45571;-52
2021/12/21 05:07:53;;;;;;;;;6.00;5.00;;;;;20.85;30.84;101781.56;5056075;28;45419;-54
2021/12/21 05:10:19;;;;;;;;;5.50;5.50;;;;;20.86;31.35;101780.63;5038068;28;45924;-52
2021/12/21 05:12:45;;;;;;;;;6.00;6.00;;;;;20.91;30.94;101783.06;5056545;28;45316;-50
2021/12/21 05:15:11;;;;;;;;;9.25;4.00;;;;;20.94;31.00;101789.06;5058538;28;45387;-54
2021/12/21 05:17:37;;;;;;;;;4.75;4.75;;;;;20.97;31.15;101783.69;5062870;28;45363;-51
2021/12/21 05:20:03;;;;;;;;;4.50;4.50;;;;;21.03;30.90;101792.22;5063343;28;45411;-54
2021/12/21 05:22:29;;;;;;;;;1.75;1.75;;;;;21.08;31.05;101792.91;5063103;28;45304;-55
2021/12/21 05:24:54;;;;;;;;;4.75;4.75;;;;;21.12;31.06;101791.84;5063171;28;45384;-53
2021/12/21 05:27:21;;;;;;;;;4.75;4.75;;;;;21.15;30.52;101782.03;5062739;28;45223;-54
2021/12/21 05:29:46;;;;;;;;;6.00;5.00;;;;;21.19;31.09;101781.88;5062984;28;46385;-52
2021/12/21 05:32:12;;;;;;;;;3.50;3.00;;;;;21.20;30.60;101779.19;5063196;28;45703;-53
2021/12/21 05:34:38;;;;;;;;;5.00;5.00;;;;;21.24;30.85;101791.31;5063226;28;45499;-52
2021/12/21 05:37:06;;;;;;;;;4.75;4.75;;;;;21.28;30.61;101798.19;5062975;28;46290;-54
2021/12/21 05:39:42;;;;;;;;;6.50;4.00;;;;;21.31;30.95;101790.13;5063401;28;45364;-53
2021/12/21 05:42:08;;;;;;;;;5.75;5.00;;;;;21.34;30.79;101790.91;5063046;28;45359;-52
2021/12/21 05:44:34;;;;;;;;;7.50;5.00;;;;;21.38;30.96;101792.50;5063582;28;45614;-52
2021/12/21 05:46:59;;;;;;;;;5.00;5.00;;;;;21.39;30.50;101788.94;5062762;28;46584;-51
2021/12/21 05:49:24;;;;;;;;;3.75;3.75;;;;;21.41;30.61;101787.94;5062840;28;45351;-52
2021/12/21 05:51:50;;;;;;;;;4.00;4.00;;;;;21.42;30.28;101787.00;5062858;28;45300;-52
2021/12/21 05:54:21;;;;;;;;;6.00;3.75;;;;;21.44;30.72;101789.59;5063177;28;45334;-51
2021/12/21 05:56:47;;;;;;;;;6.00;4.00;;;;;21.46;30.67;101783.34;5062366;28;46276;-53
2021/12/21 05:59:13;;;;;;;;;6.00;4.50;;;;;21.47;30.22;101786.81;5062728;28;45445;-53
2021/12/21 06:01:39;;;;;;;;;6.50;5.75;;;;;21.47;30.40;101792.97;5062668;28;45433;-54
2021/12/21 06:04:05;;;;;;;;;4.50;4.50;;;;;21.45;30.67;101789.53;5044896;28;45588;-51
2021/12/21 06:06:31;;;;;;;;;4.00;4.00;;;;;21.48;30.32;101799.06;5062237;28;46526;-53
2021/12/21 06:09:00;;;;;;;;;6.00;5.00;;;;;21.47;30.57;101794.72;5062162;28;45249;-54
2021/12/21 06:11:25;;;;;;;;;4.00;4.00;;;;;21.48;30.53;101801.72;5062462;28;45394;-54
2021/12/21 06:27:09;;;;;;;;;2.00;2.00;;;;;21.42;30.14;101802.00;5060126;28;45327;-54
2021/12/21 06:29:34;;;;;;;;;5.00;4.25;;;;;21.41;30.23;101798.50;5058935;28;45801;-54
2021/12/21 06:32:00;;;;;;;;;7.25;6.50;;;;;21.42;30.11;101799.38;5040900;28;45470;-55
2021/12/21 06:34:25;;;;;;;;;4.00;3.75;;;;;21.40;30.17;101793.28;5059175;28;45665;-52
2021/12/21 06:36:51;;;;;;;;;4.50;4.50;;;;;21.38;29.80;101795.13;5058696;28;46292;-55
2021/12/21 06:39:17;;;;;;;;;4.50;4.50;;;;;21.37;30.22;101790.78;5040648;28;45352;-52
2021/12/21 06:41:43;;;;;;;;;5.75;4.25;;;;;21.35;30.20;101793.50;5058696;28;45195;-55
2021/12/21 06:44:10;;;;;;;;;6.00;5.00;;;;;21.35;29.67;101787.34;5058732;28;45636;-54
2021/12/21 06:51:59;;;;;;;;;6.00;4.00;;;;;21.26;30.06;101784.19;5058558;28;45427;-53
2021/12/21 06:54:24;;;;;;;;;4.00;4.00;;;;;21.25;30.22;101787.75;5058825;28;45532;-53
2021/12/21 06:56:50;;;;;;;;;8.00;5.00;;;;;21.23;30.37;101789.59;5058333;28;46323;-53
2021/12/21 06:59:15;;;;;;;;;4.50;3.25;;;;;21.23;30.03;101788.75;5058345;28;45319;-53
2021/12/21 07:01:41;;;;;;;;;5.00;5.00;;;;;21.19;30.41;101788.03;5058804;28;45332;-54
2021/12/21 07:04:08;;;;;;;;;8.75;6.00;;;;;21.18;29.97;101786.31;5058977;28;45510;-52
2021/12/21 07:06:38;;;;;;;;;6.00;5.00;;;;;21.12;30.41;101779.53;5058201;28;46252;-53
2021/12/21 07:19:36;;;;;;;;;4.00;4.00;;;;;21.06;30.20;101792.09;5057994;28;45678;-52
2021/12/21 07:22:01;;;;;;;;;6.00;6.00;;;;;21.01;29.41;101793.16;5058108;28;45383;-51
2021/12/21 07:24:27;;;;;;;;;7.75;6.25;;;;;20.95;29.85;101793.41;5058168;28;45645;-53
2021/12/21 07:26:53;;;;;;;;;5.75;5.75;;;;;20.91;29.36;101797.09;5057863;28;45425;-49
2021/12/21 07:29:18;;;;;;;;;6.75;6.50;;;;;20.89;29.56;101798.94;5057867;28;45423;-51
2021/12/21 07:31:44;;;;;;;;;5.00;5.00;;;;;20.85;29.08;101794.72;5057874;28;45653;-53
2021/12/21 07:34:10;;;;;;;;;8.25;6.00;;;;;20.82;29.37;101806.25;5058426;28;45578;-52
2021/12/21 07:36:35;;;;;;;;;7.75;7.00;;;;;20.77;29.49;101810.00;5057505;28;45434;-53
2021/12/21 07:39:06;;;;;;;;;7.25;7.00;;;;;20.76;29.43;101805.66;5056358;28;45419;-55
2021/12/21 07:41:32;;;;;;;;;10.25;7.25;;;;;20.71;29.25;101808.44;5057714;28;45380;-51
2021/12/21 07:43:58;;;;;;;;;10.50;7.25;;;;;20.68;29.25;101805.94;5057878;28;45641;-54
2021/12/21 07:46:23;;;;;;;;;11.25;7.00;;;;;20.65;28.96;101806.03;5057543;28;46558;-53
2021/12/21 07:48:49;;;;;;;;;8.25;7.00;;;;;20.60;29.10;101800.97;5057474;28;45299;-53
2021/12/21 07:51:15;;;;;;;;;6.50;6.00;;;;;20.55;28.75;101795.88;5057568;28;45442;-55
2021/12/21 07:53:42;;;;;;;;;9.00;8.00;;;;;20.52;28.39;101797.78;5058021;28;45343;-54
2021/12/21 07:56:08;;;;;;;;;9.25;5.50;;;;;20.48;28.35;101807.59;5057273;28;45393;-53
2021/12/21 07:58:35;;;;;;;;;6.00;6.00;;;;;20.45;28.86;101802.44;5057295;28;45872;-52
2021/12/21 08:01:04;;;;;;;;;8.00;6.00;;;;;20.44;28.92;101810.41;5057450;28;45469;-54
2021/12/21 08:03:32;;;;;;;;;5.50;5.50;;;;;20.42;29.02;101805.19;5057569;28;45530;-51
2021/12/21 08:05:59;;;;;;;;;8.00;8.00;;;;;20.43;29.35;101808.69;5057095;28;46178;-53
2021/12/21 08:08:28;;;;;;;;;7.75;6.00;;;;;20.42;28.96;101812.25;5056992;28;45344;-52
2021/12/21 08:11:08;;;;;;;;;5.25;5.25;;;;;20.42;29.35;101817.50;5057303;28;45438;-52
2021/12/21 08:13:34;;;;;;;;;6.50;6.00;;;;;20.39;29.34;101813.22;5057328;28;45317;-53
2021/12/21 08:16:00;;;;;;;;;5.75;5.75;;;;;20.38;29.44;101811.50;5056895;28;45500;-48
2021/12/21 08:18:25;;;;;;;;;7.25;6.25;;;;;20.38;29.30;101814.97;5057026;28;45444;-48
2021/12/21 08:20:50;;;;;;;;;6.00;6.00;;;;;20.39;29.29;101821.13;5057117;28;45407;-51
2021/12/21 08:23:16;;;;;;;;;5.25;5.00;;;;;20.37;29.23;101817.69;5057281;28;45187;-49
2021/12/21 08:25:41;;;;;;;;;7.50;5.00;;;;;20.35;29.61;101817.72;5057005;28;47268;-51
2021/12/21 08:28:07;;;;;;;;;10.00;8.00;;;;;20.32;29.36;101817.00;5056884;28;45335;-52
2021/12/21 08:30:32;;;;;;;;;5.25;5.00;;;;;20.32;29.53;101817.00;5056935;28;45233;-51
2021/12/21 08:32:58;;;;;;;;;7.50;5.25;;;;;20.30;29.50;101819.69;5057198;28;45592;-49
2021/12/21 08:35:24;;;;;;;;;7.25;6.75;;;;;20.28;29.58;101824.16;5056845;28;46234;-48
2021/12/21 08:37:52;;;;;;;;;6.00;6.00;;;;;20.27;29.91;101819.81;5038653;28;45353;-52
2021/12/21 08:40:22;;;;;;;;;9.25;6.00;;;;;20.25;29.75;101811.09;5056682;28;45324;-52
2021/12/21 08:42:50;;;;;;;;;6.25;6.00;;;;;20.24;29.89;101815.53;5057023;28;45550;-54
2021/12/21 08:45:16;;;;;;;;;5.50;4.00;;;;;20.25;29.63;101821.63;5056733;28;47283;-52
2021/12/21 08:47:42;;;;;;;;;3.50;3.50;;;;;20.20;30.10;101815.72;5057070;28;45353;-53
2021/12/21 08:50:10;;;;;;;;;5.25;5.25;;;;;20.21;30.23;101818.28;5056288;28;45406;-51
2021/12/21 08:52:36;;;;;;;;;6.50;5.00;;;;;20.20;30.18;101818.34;5056976;28;45465;-53
2021/12/21 08:55:04;;;;;;;;;6.50;5.25;;;;;20.19;29.98;101816.63;5056366;28;46544;-54
2021/12/21 08:57:29;;;;;;;;;6.00;4.75;;;;;20.17;30.43;101816.69;5056368;28;45405;-55
2021/12/21 08:59:55;;;;;;;;;8.75;6.00;;;;;20.19;30.09;101820.09;5056343;28;46844;-54
2021/12/21 09:02:20;;;;;;;;;6.00;4.75;;;;;20.21;30.50;101820.06;5056837;28;45480;-56
2021/12/21 09:04:46;;;;;;;;;8.75;6.00;;;;;20.20;30.83;101824.44;5056701;28;45403;-54
2021/12/21 09:07:11;;;;;;;;;6.25;5.50;;;;;20.22;30.14;101824.41;5056265;28;45391;-53
2021/12/21 09:09:37;;;;;;;;;10.00;9.00;;;;;20.23;30.48;101828.72;5056569;28;45716;-56
2021/12/21 09:12:02;;;;;;;;;7.25;6.25;;;;;20.24;30.46;101826.06;5056383;28;45407;-53
2021/12/21 09:14:31;;;;;;;;;8.75;7.25;;;;;20.25;30.67;101832.16;5056308;28;45310;-55
2021/12/21 09:17:01;;;;;;;;;8.25;6.00;;;;;20.25;31.01;101826.91;5055634;28;45744;-55
2021/12/21 09:19:26;;;;;;;;;6.50;5.50;;;;;20.25;30.97;101832.16;5056334;28;45360;-54
2021/12/21 09:21:52;;;;;;;;;10.50;7.50;;;;;20.24;31.02;101827.81;5056388;28;45352;-57
2021/12/21 09:24:17;;;;;;;;;6.00;6.00;;;;;20.24;30.68;101839.22;5056415;28;46648;-54
2021/12/21 09:26:43;;;;;;;;;6.25;6.25;;;;;20.24;30.74;101836.59;5056309;28;45420;-53
2021/12/21 09:29:08;;;;;;;;;8.00;6.75;;;;;20.26;30.83;101831.25;5056235;28;45337;-56
2021/12/21 09:31:34;;;;;;;;;6.75;6.75;;;;;20.30;30.92;101839.88;5056372;28;45384;-54
2021/12/21 09:34:00;;;;;;;;;11.00;8.00;;;;;20.31;31.40;101831.94;5055853;28;45453;-55
2021/12/21 09:36:26;;;;;;;;;9.00;9.00;;;;;20.30;31.03;101827.59;5055989;28;45330;-55
2021/12/21 09:38:52;;;;;;;;;7.25;6.00;;;;;20.29;30.37;101828.50;5056223;28;45306;-56
2021/12/21 09:41:18;;;;;;;;;10.75;8.00;;;;;20.27;30.45;101835.59;5056554;28;45352;-55
2021/12/21 09:43:44;;;;;;;;;13.25;9.50;;;;;20.24;29.89;101836.59;5056087;28;46202;-56
2021/12/21 09:46:10;;;;;;;;;8.25;7.00;;;;;20.22;30.14;101837.56;5056065;28;45324;-55
2021/12/21 09:48:36;;;;;;;;;5.75;5.00;;;;;20.20;30.39;101844.66;5021487;28;45406;-54
2021/12/21 09:51:02;;;;;;;;;6.50;6.00;;;;;20.18;30.09;101843.84;5055863;28;45435;-55
2021/12/21 09:53:31;;;;;;;;;10.25;7.75;;;;;20.17;30.48;101845.66;5055694;28;45339;-53
2021/12/21 09:55:57;;;;;;;;;7.50;6.25;;;;;20.15;29.96;101847.47;5055866;28;45748;-56
2021/12/21 09:58:22;;;;;;;;;14.25;10.00;;;;;20.13;30.69;101844.03;5055873;28;45297;-55
2021/12/21 10:00:48;;;;;;;;;8.25;8.00;;;;;20.12;30.10;101847.56;5056385;28;45278;-54
2021/12/21 10:03:14;;;;;;;;;11.00;8.25;;;;;20.10;29.85;101845.94;5058113;28;45537;-57
2021/12/21 10:05:42;;;;;;;;;11.50;7.75;;;;;20.06;30.33;101839.94;5059183;28;45787;-55
2021/12/21 10:08:15;;;;;;;;;10.75;9.00;;;;;20.03;30.31;101848.75;5059097;28;45497;-55
2021/12/21 10:10:44;;;;;;;;;9.75;9.50;;;;;19.98;29.96;101840.19;5059310;28;45495;-55
2021/12/21 10:13:11;;;;;;;;;9.25;9.25;;;;;19.96;29.96;101846.41;5059095;28;45398;-55
2021/12/21 10:15:40;;;;;;;;;7.25;7.25;;;;;19.94;30.01;101843.84;5058935;28;45888;-55
2021/12/21 10:18:05;;;;;;;;;9.00;9.00;;;;;19.90;29.96;101848.38;5059049;28;45473;-53
2021/12/21 10:20:31;;;;;;;;;11.75;10.75;;;;;19.87;29.62;101842.38;5059195;28;45332;-55
2021/12/21 10:22:56;;;;;;;;;8.75;8.75;;;;;19.84;29.15;101851.22;5058738;28;47334;-54
2021/12/21 10:25:24;;;;;;;;;9.25;8.25;;;;;19.81;29.04;101858.31;5058904;28;45358;-55
2021/12/21 10:27:50;;;;;;;;;6.50;6.50;;;;;19.76;29.18;101843.59;5059313;28;45375;-54
2021/12/21 10:30:15;;;;;;;;;8.25;8.25;;;;;19.74;29.05;101842.78;5059429;28;45252;-53
2021/12/21 10:32:51;;;;;;;;;12.00;9.25;;;;;19.71;29.09;101844.66;5058776;28;46400;-56
2021/12/21 10:35:16;;;;;;;;;12.25;8.00;;;;;19.69;28.83;101839.44;5058760;28;45375;-54
2021/12/21 10:37:42;;;;;;;;;10.50;9.75;;;;;19.67;28.74;101830.78;5058700;28;45241;-55
2021/12/21 10:40:25;;;;;;;;;8.00;8.00;;;;;19.62;29.10;101833.53;5058927;28;45316;-54
2021/12/21 10:42:56;;;;;;;;;14.00;10.25;;;;;19.62;28.73;101833.53;5059012;28;46412;-54
2021/12/21 10:45:33;;;;;;;;;10.00;9.00;;;;;19.60;28.91;101832.75;5058338;28;45277;-55
2021/12/21 10:48:00;;;;;;;;;12.50;9.25;;;;;19.57;28.96;101829.34;5058645;28;45417;-54
2021/12/21 10:50:29;;;;;;;;;11.75;10.00;;;;;19.54;28.73;101832.97;5058819;28;45459;-54
2021/12/21 10:52:58;;;;;;;;;12.75;10.25;;;;;19.53;28.19;101833.03;5058390;28;46366;-55
2021/12/21 10:55:32;;;;;;;;;16.50;13.00;;;;;19.50;28.54;101833.13;5058458;28;45419;-53
2021/12/21 10:58:18;;;;;;;;;12.50;8.75;;;;;19.49;28.87;101826.16;5058466;28;45692;-56
2021/12/21 11:00:50;;;;;;;;;11.00;9.00;;;;;19.49;29.24;101827.03;5058483;28;45505;-54
2021/12/21 11:03:17;;;;;;;;;11.75;8.75;;;;;19.49;29.69;101828.78;5039937;28;46745;-54
2021/12/21 11:05:45;;;;;;;;;11.25;9.25;;;;;19.50;29.17;101822.59;5058325;28;45875;-56
2021/12/21 11:08:16;;;;;;;;;15.00;9.75;;;;;19.49;29.42;101818.25;5058258;28;45395;-54
2021/12/21 11:10:48;;;;;;;;;13.75;11.25;;;;;19.51;29.58;101819.06;5058206;28;45439;-55
2021/12/21 11:13:15;;;;;;;;;12.25;9.25;;;;;19.50;29.75;101833.13;5057705;28;47100;-55
2021/12/21 11:15:48;;;;;;;;;9.25;8.00;;;;;19.50;29.67;101825.22;5057944;28;45463;-54
2021/12/21 11:18:19;;;;;;;;;13.00;8.25;;;;;19.49;29.29;101828.78;5058079;28;45310;-55
2021/12/21 11:20:48;;;;;;;;;11.25;11.25;;;;;19.46;29.37;101827.13;5058314;28;45232;-53
2021/12/21 11:23:16;;;;;;;;;13.75;12.25;;;;;19.44;28.78;101831.56;5057944;28;45230;-54
2021/12/21 11:25:43;;;;;;;;;11.75;9.25;;;;;19.40;28.87;101828.19;5057870;28;45938;-54
2021/12/21 11:28:14;;;;;;;;;11.25;11.25;;;;;19.37;29.08;101812.50;5058052;28;45387;-55
2021/12/21 11:30:40;;;;;;;;;12.25;8.25;;;;;19.35;29.04;101824.00;5057306;28;45681;-52
2021/12/21 11:33:07;;;;;;;;;13.50;10.00;;;;;19.34;29.42;101806.50;5057768;28;45688;-53
2021/12/21 11:38:02;;;;;;;;;12.25;11.75;;;;;19.34;29.32;101815.28;5057772;28;45949;-55
2021/12/21 11:40:32;;;;;;;;;13.00;10.00;;;;;19.33;29.02;101813.56;5057877;28;45243;-54
2021/12/21 11:43:11;;;;;;;;;12.25;10.75;;;;;19.33;29.64;101800.41;5057552;28;45673;-54
2021/12/21 11:45:58;;;;;;;;;19.25;12.75;;;;;19.36;29.92;101800.28;5039321;28;45824;-52
2021/12/21 11:48:59;;;;;;;;;14.50;12.50;;;;;19.38;29.66;101797.63;5057863;28;45340;-52
2021/12/21 11:51:27;;;;;;;;;12.00;10.25;;;;;19.37;29.92;101795.91;5058104;28;45484;-54
2021/12/21 11:53:53;;;;;;;;;14.50;13.25;;;;;19.39;29.82;101791.44;5057501;28;46039;-51
2021/12/21 11:56:25;;;;;;;;;15.00;11.50;;;;;19.39;29.44;101789.66;5057220;28;45852;-53
2021/12/21 11:58:54;;;;;;;;;15.00;12.75;;;;;19.34;29.17;101783.72;5058038;28;45399;-50
2021/12/21 12:01:28;;;;;;;;;18.50;15.75;;;;;19.36;29.63;101787.13;5057569;28;45651;-52
2021/12/21 12:03:59;;;;;;;;;14.25;13.50;;;;;19.38;29.39;101785.31;5057662;28;46408;-52
2021/12/21 12:06:26;;;;;;;;;13.25;11.25;;;;;19.39;29.78;101780.94;5057540;28;45362;-54
2021/12/21 12:08:59;;;;;;;;;15.50;14.00;;;;;19.41;29.86;101785.22;5057374;28;45402;-51
2021/12/21 12:11:37;;;;;;;;;17.00;14.50;;;;;19.40;29.93;101791.38;5057767;28;45233;-52
2021/12/21 12:14:17;;;;;;;;;16.00;11.75;;;;;19.43;30.42;101780.78;5057087;28;46166;-52
2021/12/21 12:16:57;;;;;;;;;23.25;19.00;;;;;19.40;29.93;101770.34;5057079;28;45932;-53
2021/12/21 12:19:34;;;;;;;;;49.25;36.00;;;;;19.40;30.02;101764.25;5057400;28;45395;-53
2021/12/21 12:22:08;;;;;;;;;67.75;49.50;;;;;19.38;29.46;101764.28;5057269;28;45347;-53
2021/12/21 12:24:44;;;;;;;;;77.25;59.25;;;;;19.37;29.63;101765.19;5056056;28;45681;-54
2021/12/21 12:27:19;;;;;;;;;76.25;60.25;;;;;19.35;29.94;101751.25;5057058;28;45379;-51
2021/12/21 12:29:50;;;;;;;;;76.50;56.25;;;;;19.32;30.17;101756.63;5057102;28;45460;-51
2021/12/21 12:32:18;;;;;;;;;72.50;54.50;;;;;19.33;30.28;101763.59;5056832;28;45220;-55
2021/12/21 12:34:44;;;;;;;;;66.00;50.00;;;;;19.31;30.60;101763.66;5038581;28;48499;-51
2021/12/21 12:37:20;;;;;;;;;65.00;49.75;;;;;19.30;29.95;101750.56;5056589;28;45788;-53
2021/12/21 12:39:49;;;;;;;;;66.00;50.75;;;;;19.27;30.36;101748.03;5056710;28;45481;-53
2021/12/21 12:42:22;;;;;;;;;67.25;48.25;;;;;19.28;30.05;101749.75;5038819;28;45621;-52